createdAt,value
2022-09-06T00:01:06.926Z,96.746826
2022-09-06T00:02:16.634Z,96.954346
2022-09-06T00:03:25.315Z,96.850586
2022-09-06T00:04:34.029Z,96.850586
2022-09-06T00:05:42.748Z,96.954346
2022-09-06T00:06:51.393Z,97.155762
2022-09-06T00:08:01.110Z,97.155762
2022-09-06T00:09:08.821Z,97.253418
2022-09-06T00:10:17.476Z,97.253418
2022-09-06T00:11:27.182Z,97.155762
2022-09-06T00:12:35.863Z,97.155762
2022-09-06T00:13:44.508Z,97.253418
2022-09-06T00:14:53.237Z,97.357178
2022-09-06T00:16:02.016Z,97.357178
2022-09-06T00:17:11.670Z,97.399902
2022-09-06T00:18:20.362Z,97.399902
2022-09-06T00:19:30.047Z,97.503662
2022-09-06T00:20:37.753Z,98.010254
2022-09-06T00:21:45.404Z,98.010254
2022-09-06T00:22:55.125Z,98.010254
2022-09-06T00:24:04.820Z,98.010254
2022-09-06T00:25:13.478Z,98.010254
2022-09-06T00:26:22.139Z,98.010254
2022-09-06T00:27:31.793Z,97.906494
2022-09-06T00:28:41.481Z,98.10791
2022-09-06T00:29:49.135Z,98.156738
2022-09-06T00:30:57.859Z,98.156738
2022-09-06T00:32:07.482Z,98.254395
2022-09-06T00:33:16.141Z,98.455811
2022-09-06T00:34:25.856Z,98.455811
2022-09-06T00:35:34.546Z,98.55957
2022-09-06T00:36:44.193Z,98.66333
2022-09-06T00:37:53.852Z,98.760986
2022-09-06T00:39:01.517Z,98.864746
2022-09-06T00:40:10.243Z,98.962402
2022-09-06T00:41:19.880Z,99.066162
2022-09-06T00:42:28.525Z,99.066162
2022-09-06T00:43:36.219Z,99.066162
2022-09-06T00:44:45.891Z,99.066162
2022-09-06T00:45:54.644Z,99.066162
2022-09-06T00:47:04.329Z,99.163818
2022-09-06T00:48:13.043Z,99.163818
2022-09-06T00:49:20.715Z,99.163818
2022-09-06T00:50:30.425Z,99.163818
2022-09-06T00:51:39.100Z,99.163818
2022-09-06T00:52:48.792Z,99.066162
2022-09-06T00:53:57.480Z,99.066162
2022-09-06T00:55:06.168Z,98.962402
2022-09-06T00:56:15.824Z,99.01123
2022-09-06T00:57:23.497Z,99.01123
2022-09-06T00:58:31.163Z,99.01123
2022-09-06T00:59:40.822Z,99.01123
2022-09-06T01:00:49.506Z,99.108887
2022-09-06T01:01:59.344Z,99.108887
2022-09-06T01:03:07.893Z,99.212646
2022-09-06T01:04:16.562Z,99.212646
2022-09-06T01:05:26.226Z,99.212646
2022-09-06T01:06:33.920Z,99.212646
2022-09-06T01:07:43.581Z,99.212646
2022-09-06T01:08:53.389Z,99.316406
2022-09-06T01:10:02.103Z,99.414062
2022-09-06T01:11:10.758Z,99.414062
2022-09-06T01:12:19.443Z,99.316406
2022-09-06T01:13:29.107Z,99.316406
2022-09-06T01:14:38.821Z,99.212646
2022-09-06T01:15:45.563Z,99.212646
2022-09-06T01:16:53.198Z,99.108887
2022-09-06T01:18:02.876Z,99.212646
2022-09-06T01:19:12.532Z,99.316406
2022-09-06T01:20:21.259Z,99.414062
2022-09-06T01:21:30.952Z,99.517822
2022-09-06T01:22:39.611Z,99.517822
2022-09-06T01:23:49.311Z,99.517822
2022-09-06T01:24:56.983Z,99.414062
2022-09-06T01:26:04.796Z,99.212646
2022-09-06T01:27:13.453Z,99.01123
2022-09-06T01:28:22.142Z,98.907471
2022-09-06T01:29:30.809Z,99.108887
2022-09-06T01:30:40.530Z,99.212646
2022-09-06T01:31:49.220Z,99.108887
2022-09-06T01:32:57.931Z,99.108887
2022-09-06T01:34:07.616Z,99.108887
2022-09-06T01:35:15.268Z,99.108887
2022-09-06T01:36:24.969Z,99.01123
2022-09-06T01:37:33.669Z,99.01123
2022-09-06T01:38:42.364Z,99.157715
2022-09-06T01:39:51.101Z,99.261475
2022-09-06T01:41:00.697Z,99.462891
2022-09-06T01:42:10.418Z,99.664307
2022-09-06T01:43:19.094Z,99.768066
2022-09-06T01:44:28.783Z,99.865723
2022-09-06T01:45:38.442Z,99.865723
2022-09-06T01:46:47.172Z,99.993896
2022-09-06T01:47:55.838Z,99.993896
2022-09-06T01:49:05.529Z,99.993896
2022-09-06T01:50:14.253Z,99.993896
2022-09-06T01:51:23.954Z,99.993896
2022-09-06T01:52:32.657Z,99.993896
2022-09-06T01:53:41.348Z,99.993896
2022-09-06T01:54:51.032Z,99.993896
2022-09-06T01:56:00.695Z,99.993896
2022-09-06T01:57:10.414Z,99.993896
2022-09-06T01:58:19.123Z,99.993896
2022-09-06T01:59:27.823Z,99.993896
2022-09-06T02:00:37.542Z,99.993896
2022-09-06T02:01:46.344Z,99.993896
2022-09-06T02:02:54.023Z,99.993896
2022-09-06T02:04:03.647Z,99.993896
2022-09-06T02:05:13.339Z,99.993896
2022-09-06T02:06:23.050Z,99.993896
2022-09-06T02:07:31.727Z,99.993896
2022-09-06T02:08:40.370Z,99.993896
2022-09-06T02:09:50.039Z,99.993896
2022-09-06T02:10:57.698Z,99.993896
2022-09-06T02:12:05.377Z,99.993896
2022-09-06T02:13:15.066Z,99.993896
2022-09-06T02:14:21.707Z,99.993896
2022-09-06T02:15:31.409Z,99.993896
2022-09-06T02:16:41.087Z,99.993896
2022-09-06T02:17:51.714Z,99.993896
2022-09-06T02:19:00.403Z,99.993896
2022-09-06T02:20:09.086Z,99.993896
2022-09-06T02:21:18.806Z,99.993896
2022-09-06T02:22:26.499Z,99.993896
2022-09-06T02:23:36.210Z,99.993896
2022-09-06T02:24:44.888Z,99.993896
2022-09-06T02:25:53.565Z,99.993896
2022-09-06T02:27:02.264Z,99.993896
2022-09-06T02:28:10.916Z,99.993896
2022-09-06T02:29:19.733Z,99.993896
2022-09-06T02:30:29.495Z,99.993896
2022-09-06T02:31:38.110Z,99.993896
2022-09-06T02:32:45.797Z,99.993896
2022-09-06T02:33:55.478Z,99.993896
2022-09-06T02:35:04.131Z,99.993896
2022-09-06T02:36:13.819Z,99.993896
2022-09-06T02:37:23.477Z,99.993896
2022-09-06T02:38:32.139Z,99.993896
2022-09-06T02:39:41.894Z,99.993896
2022-09-06T02:40:50.580Z,99.993896
2022-09-06T02:41:58.267Z,99.993896
2022-09-06T02:43:07.957Z,99.993896
2022-09-06T02:44:16.629Z,99.993896
2022-09-06T02:45:26.310Z,99.993896
2022-09-06T02:46:35.018Z,99.993896
2022-09-06T02:47:43.674Z,99.993896
2022-09-06T02:48:53.344Z,99.993896
2022-09-06T02:50:01.047Z,99.993896
2022-09-06T02:51:09.728Z,99.993896
2022-09-06T02:52:18.414Z,99.993896
2022-09-06T02:53:27.137Z,99.993896
2022-09-06T02:54:35.964Z,99.993896
2022-09-06T02:55:45.636Z,99.993896
2022-09-06T02:56:55.332Z,99.993896
2022-09-06T02:58:05.022Z,99.993896
2022-09-06T02:59:13.694Z,99.993896
2022-09-06T03:00:21.355Z,99.993896
2022-09-06T03:01:32.208Z,99.993896
2022-09-06T03:02:40.716Z,99.993896
2022-09-06T03:03:49.409Z,99.993896
2022-09-06T03:04:58.084Z,99.993896
2022-09-06T03:06:06.778Z,99.993896
2022-09-06T03:07:16.450Z,99.993896
2022-09-06T03:08:24.125Z,99.993896
2022-09-06T03:09:32.823Z,99.993896
2022-09-06T03:10:42.511Z,99.993896
2022-09-06T03:11:52.161Z,99.993896
2022-09-06T03:13:00.876Z,99.993896
2022-09-06T03:14:09.535Z,99.993896
2022-09-06T03:15:18.327Z,99.993896
2022-09-06T03:16:29.017Z,99.993896
2022-09-06T03:17:37.648Z,99.993896
2022-09-06T03:18:46.307Z,99.993896
2022-09-06T03:19:56.040Z,99.993896
2022-09-06T03:21:05.743Z,99.993896
2022-09-06T03:22:14.420Z,99.993896
2022-09-06T03:23:23.128Z,99.993896
2022-09-06T03:24:31.788Z,99.993896
2022-09-06T03:25:41.473Z,99.993896
2022-09-06T03:26:49.126Z,99.993896
2022-09-06T03:27:57.941Z,99.993896
2022-09-06T03:29:06.578Z,99.993896
2022-09-06T03:30:15.229Z,99.993896
2022-09-06T03:31:23.914Z,99.993896
2022-09-06T03:32:33.623Z,99.993896
2022-09-06T03:33:43.303Z,99.993896
2022-09-06T03:34:53.060Z,99.993896
2022-09-06T03:36:00.718Z,99.993896
2022-09-06T03:37:08.371Z,99.993896
2022-09-06T03:38:18.082Z,99.993896
2022-09-06T03:39:27.803Z,99.993896
2022-09-06T03:40:37.456Z,99.993896
2022-09-06T03:41:46.158Z,99.993896
2022-09-06T03:42:54.826Z,99.993896
2022-09-06T03:44:04.545Z,99.993896
2022-09-06T03:45:14.239Z,99.993896
2022-09-06T03:46:21.954Z,99.993896
2022-09-06T03:47:31.626Z,99.993896
2022-09-06T03:48:40.291Z,99.993896
2022-09-06T03:49:48.971Z,99.993896
2022-09-06T03:50:57.655Z,99.993896
2022-09-06T03:52:06.380Z,99.993896
2022-09-06T03:53:16.086Z,99.993896
2022-09-06T03:54:23.845Z,99.993896
2022-09-06T03:55:32.553Z,99.993896
2022-09-06T03:56:42.226Z,99.993896
2022-09-06T03:57:49.884Z,99.993896
2022-09-06T03:58:58.568Z,99.993896
2022-09-06T04:00:08.309Z,99.993896
2022-09-06T04:01:17.035Z,99.993896
2022-09-06T04:02:25.715Z,99.993896
2022-09-06T04:03:34.333Z,99.993896
2022-09-06T04:04:43.039Z,99.993896
2022-09-06T04:05:52.741Z,99.993896
2022-09-06T04:07:01.431Z,99.993896
2022-09-06T04:08:09.073Z,99.993896
2022-09-06T04:09:17.730Z,99.993896
2022-09-06T04:10:26.383Z,99.993896
2022-09-06T04:11:36.083Z,99.993896
2022-09-06T04:12:45.754Z,99.993896
2022-09-06T04:13:55.429Z,99.993896
2022-09-06T04:15:05.106Z,99.993896
2022-09-06T04:16:12.841Z,99.993896
2022-09-06T04:17:22.455Z,99.993896
2022-09-06T04:18:32.212Z,99.993896
2022-09-06T04:19:41.900Z,99.993896
2022-09-06T04:20:51.561Z,99.993896
2022-09-06T04:22:00.235Z,99.993896
2022-09-06T04:23:09.926Z,99.993896
2022-09-06T04:24:18.655Z,99.993896
2022-09-06T04:25:26.317Z,99.993896
2022-09-06T04:26:36.138Z,99.993896
2022-09-06T04:27:44.823Z,99.993896
2022-09-06T04:28:54.498Z,99.993896
2022-09-06T04:30:03.176Z,99.993896
2022-09-06T04:31:11.830Z,99.993896
2022-09-06T04:32:21.500Z,99.993896
2022-09-06T04:33:29.164Z,99.993896
2022-09-06T04:34:38.845Z,99.993896
2022-09-06T04:35:47.683Z,99.993896
2022-09-06T04:36:56.351Z,99.993896
2022-09-06T04:38:05.030Z,99.993896
2022-09-06T04:39:13.692Z,99.993896
2022-09-06T04:40:23.382Z,99.993896
2022-09-06T04:41:33.099Z,99.993896
2022-09-06T04:42:39.748Z,99.993896
2022-09-06T04:43:47.415Z,99.993896
2022-09-06T04:44:57.139Z,99.993896
2022-09-06T04:46:05.859Z,99.993896
2022-09-06T04:47:14.493Z,99.993896
2022-09-06T04:48:24.267Z,99.993896
2022-09-06T04:49:32.869Z,99.993896
2022-09-06T04:50:42.519Z,99.993896
2022-09-06T04:51:50.195Z,99.993896
2022-09-06T04:52:57.911Z,99.993896
2022-09-06T04:54:07.581Z,99.993896
2022-09-06T04:55:17.281Z,99.993896
2022-09-06T04:56:26.965Z,99.993896
2022-09-06T04:57:35.664Z,99.993896
2022-09-06T04:58:44.386Z,99.993896
2022-09-06T04:59:54.130Z,99.993896
2022-09-06T05:01:03.948Z,99.993896
2022-09-06T05:02:12.567Z,99.993896
2022-09-06T05:03:22.210Z,99.993896
2022-09-06T05:04:30.870Z,99.993896
2022-09-06T05:05:38.524Z,99.993896
2022-09-06T05:06:48.187Z,99.993896
2022-09-06T05:07:57.862Z,99.993896
2022-09-06T05:09:07.534Z,99.993896
2022-09-06T05:10:16.254Z,99.993896
2022-09-06T05:11:25.949Z,99.993896
2022-09-06T05:12:34.670Z,99.993896
2022-09-06T05:13:45.345Z,99.993896
2022-09-06T05:14:53.019Z,99.993896
2022-09-06T05:16:01.867Z,99.993896
2022-09-06T05:17:11.479Z,99.993896
2022-09-06T05:18:21.168Z,99.993896
2022-09-06T05:19:28.866Z,99.993896
2022-09-06T05:20:38.534Z,99.993896
2022-09-06T05:21:48.271Z,99.993896
2022-09-06T05:22:57.944Z,99.993896
2022-09-06T05:24:06.655Z,99.993896
2022-09-06T05:25:15.334Z,99.853516
2022-09-06T05:26:25.007Z,99.54834
2022-09-06T05:27:34.720Z,99.44458
2022-09-06T05:28:44.401Z,99.6521
2022-09-06T05:29:54.058Z,99.853516
2022-09-06T05:31:02.762Z,99.499512
2022-09-06T05:32:12.428Z,99.499512
2022-09-06T05:33:21.179Z,99.298096
2022-09-06T05:34:28.854Z,99.194336
2022-09-06T05:35:38.528Z,99.499512
2022-09-06T05:36:47.195Z,99.456787
2022-09-06T05:37:56.858Z,99.353027
2022-09-06T05:39:06.672Z,99.047852
2022-09-06T05:40:15.342Z,99.047852
2022-09-06T05:41:25.038Z,99.151611
2022-09-06T05:42:33.729Z,98.699951
2022-09-06T05:43:43.425Z,98.291016
2022-09-06T05:44:53.130Z,98.291016
2022-09-06T05:46:02.842Z,98.193359
2022-09-06T05:47:11.467Z,98.394775
2022-09-06T05:48:20.124Z,98.291016
2022-09-06T05:49:28.813Z,98.596191
2022-09-06T05:50:38.557Z,98.291016
2022-09-06T05:51:46.211Z,97.991943
2022-09-06T05:52:54.946Z,97.381592
2022-09-06T05:54:04.611Z,97.381592
2022-09-06T05:55:14.298Z,97.180176
2022-09-06T05:56:21.985Z,96.929932
2022-09-06T05:57:30.650Z,97.033691
2022-09-06T05:58:39.308Z,97.137451
2022-09-06T05:59:48.967Z,96.5271
2022-09-06T06:00:56.685Z,96.276855
2022-09-06T06:02:07.419Z,96.276855
2022-09-06T06:03:16.002Z,96.685791
2022-09-06T06:04:24.710Z,96.276855
2022-09-06T06:05:33.444Z,95.831299
2022-09-06T06:06:42.123Z,95.324707
2022-09-06T06:07:51.782Z,94.921875
2022-09-06T06:09:01.482Z,94.720459
2022-09-06T06:10:10.128Z,94.921875
2022-09-06T06:11:19.820Z,94.720459
2022-09-06T06:12:26.467Z,94.818115
2022-09-06T06:13:35.168Z,95.074463
2022-09-06T06:14:44.898Z,94.671631
2022-09-06T06:15:53.563Z,94.775391
2022-09-06T06:17:03.236Z,94.671631
2022-09-06T06:18:11.855Z,94.573975
2022-09-06T06:19:20.640Z,94.671631
2022-09-06T06:20:30.295Z,94.268799
2022-09-06T06:21:37.962Z,94.268799
2022-09-06T06:22:45.611Z,94.470215
2022-09-06T06:23:55.310Z,94.372559
2022-09-06T06:25:03.996Z,94.573975
2022-09-06T06:26:13.653Z,95.178223
2022-09-06T06:27:23.336Z,94.726562
2022-09-06T06:28:32.062Z,94.32373
2022-09-06T06:29:41.747Z,94.226074
2022-09-06T06:30:49.490Z,94.122314
2022-09-06T06:31:57.243Z,94.525146
2022-09-06T06:33:06.822Z,94.32373
2022-09-06T06:34:15.500Z,94.281006
2022-09-06T06:35:24.156Z,94.683838
2022-09-06T06:36:33.989Z,94.384766
2022-09-06T06:37:42.546Z,93.731689
2022-09-06T06:38:52.201Z,94.036865
2022-09-06T06:39:59.932Z,93.127441
2022-09-06T06:41:08.526Z,93.182373
2022-09-06T06:42:18.239Z,92.980957
2022-09-06T06:43:26.909Z,92.681885
2022-09-06T06:44:36.567Z,92.230225
2022-09-06T06:45:45.232Z,92.633057
2022-09-06T06:46:53.879Z,91.888428
2022-09-06T06:48:03.626Z,91.687012
2022-09-06T06:49:12.350Z,91.784668
2022-09-06T06:50:20.009Z,91.583252
2022-09-06T06:51:29.678Z,91.339111
2022-09-06T06:52:38.347Z,90.838623
2022-09-06T06:53:48.034Z,90.332031
2022-09-06T06:54:57.696Z,90.637207
2022-09-06T06:56:06.397Z,90.332031
2022-09-06T06:57:16.065Z,90.087891
2022-09-06T06:58:24.726Z,89.788818
2022-09-06T06:59:32.424Z,90.087891
2022-09-06T07:00:42.247Z,89.685059
2022-09-06T07:01:50.899Z,89.685059
2022-09-06T07:03:00.417Z,89.746094
2022-09-06T07:04:08.065Z,89.141846
2022-09-06T07:07:39.585Z,88.94043
2022-09-06T07:08:46.744Z,88.897705
2022-09-06T07:11:07.085Z,88.391113
2022-09-06T07:12:16.742Z,88.153076
2022-09-06T07:13:25.502Z,88.153076
2022-09-06T07:14:35.093Z,87.207031
2022-09-06T07:15:44.789Z,87.207031
2022-09-06T07:16:52.506Z,87.70752
2022-09-06T07:18:00.165Z,86.462402
2022-09-06T07:20:20.454Z,85.473633
2022-09-06T07:21:37.427Z,85.333252
2022-09-06T07:22:39.778Z,83.630371
2022-09-06T07:24:59.071Z,82.788086
2022-09-06T07:26:07.750Z,81.848145
2022-09-06T07:28:28.230Z,81.445312
2022-09-06T07:29:37.778Z,81.445312
2022-09-06T07:30:46.426Z,80.743408
2022-09-06T07:32:11.498Z,81.243896
2022-09-06T07:33:06.742Z,81.445312
2022-09-06T07:34:15.426Z,80.444336
2022-09-06T07:35:25.096Z,81.243896
2022-09-06T07:36:34.777Z,81.243896
2022-09-06T07:37:44.451Z,80.34668
2022-09-06T07:38:52.122Z,80.24292
2022-09-06T07:39:59.841Z,80.444336
2022-09-06T07:41:09.528Z,80.584717
2022-09-06T07:42:19.204Z,80.786133
2022-09-06T07:43:28.013Z,81.384277
2022-09-06T07:44:36.595Z,81.085205
2022-09-06T07:45:45.437Z,81.481934
2022-09-06T07:46:55.272Z,81.286621
2022-09-06T07:48:05.807Z,81.182861
2022-09-06T07:49:13.502Z,80.981445
2022-09-06T07:51:33.929Z,82.086182
2022-09-06T07:54:02.404Z,81.225586
2022-09-06T07:55:04.035Z,81.420898
2022-09-06T07:56:13.696Z,81.82373
2022-09-06T07:57:22.382Z,81.524658
2022-09-06T07:58:31.145Z,81.866455
2022-09-06T07:59:42.947Z,82.666016
2022-09-06T08:00:49.578Z,82.763672
2022-09-06T08:01:58.231Z,82.763672
2022-09-06T08:03:06.885Z,82.965088
2022-09-06T08:04:16.557Z,83.270264
2022-09-06T08:07:47.643Z,84.368896
2022-09-06T08:10:04.826Z,83.709717
2022-09-06T08:11:14.524Z,84.008789
2022-09-06T08:12:24.244Z,84.411621
2022-09-06T08:13:33.912Z,84.210205
2022-09-06T08:14:42.630Z,84.814453
2022-09-06T08:15:52.381Z,84.570312
2022-09-06T08:17:02.007Z,84.674072
2022-09-06T08:18:10.679Z,84.472656
2022-09-06T08:19:18.400Z,83.972168
2022-09-06T08:20:28.050Z,84.771729
2022-09-06T08:21:37.732Z,84.570312
2022-09-06T08:22:46.395Z,84.674072
2022-09-06T08:23:56.067Z,84.735107
2022-09-06T08:25:04.725Z,84.130859
2022-09-06T08:26:14.475Z,83.929443
2022-09-06T08:27:22.139Z,83.831787
2022-09-06T08:28:30.789Z,83.630371
2022-09-06T08:29:40.471Z,83.789062
2022-09-06T08:30:49.139Z,82.348633
2022-09-06T08:31:58.896Z,82.751465
2022-09-06T08:33:08.526Z,82.409668
2022-09-06T08:34:17.200Z,82.067871
2022-09-06T08:35:26.929Z,81.268311
2022-09-06T08:36:34.616Z,80.932617
2022-09-06T08:37:43.332Z,80.230713
2022-09-06T08:38:53.048Z,79.589844
2022-09-06T08:40:01.771Z,79.193115
2022-09-06T08:41:10.381Z,79.388428
2022-09-06T08:42:19.056Z,79.25415
2022-09-06T08:43:27.854Z,78.552246
2022-09-06T08:45:48.578Z,78.790283
2022-09-06T08:46:57.853Z,77.893066
2022-09-06T08:48:07.548Z,78.692627
2022-09-06T08:49:16.248Z,78.692627
2022-09-06T08:50:24.935Z,77.752686
2022-09-06T08:51:38.343Z,77.056885
2022-09-06T08:52:49.661Z,76.855469
2022-09-06T08:53:54.850Z,76.654053
2022-09-06T08:55:02.555Z,75.958252
2022-09-06T08:56:11.207Z,75.653076
2022-09-06T08:57:20.885Z,76.055908
2022-09-06T08:58:29.631Z,76.416016
2022-09-06T08:59:37.217Z,76.019287
2022-09-06T09:00:47.070Z,76.116943
2022-09-06T09:01:55.756Z,76.483154
2022-09-06T09:03:05.346Z,75.518799
2022-09-06T09:04:15.049Z,75.616455
2022-09-06T09:05:22.700Z,75.817871
2022-09-06T09:06:32.409Z,75.817871
2022-09-06T09:07:41.098Z,74.920654
2022-09-06T09:08:50.777Z,75.518799
2022-09-06T09:10:00.468Z,76.416016
2022-09-06T09:11:09.124Z,74.621582
2022-09-06T09:12:18.872Z,75.616455
2022-09-06T09:13:28.531Z,75.720215
2022-09-06T09:14:36.171Z,75.616455
2022-09-06T09:15:45.848Z,75.982666
2022-09-06T09:16:55.531Z,76.879883
2022-09-06T09:18:06.295Z,77.282715
2022-09-06T09:19:15.084Z,76.879883
2022-09-06T09:20:23.643Z,75.78125
2022-09-06T09:21:33.340Z,75.585938
2022-09-06T09:22:42.036Z,75.280762
2022-09-06T09:23:51.779Z,75.982666
2022-09-06T09:25:01.452Z,75.183105
2022-09-06T09:26:11.140Z,75.482178
2022-09-06T09:27:19.803Z,75.482178
2022-09-06T09:28:28.567Z,76.519775
2022-09-06T09:29:38.382Z,75.817871
2022-09-06T09:30:49.265Z,76.318359
2022-09-06T09:31:58.803Z,75.921631
2022-09-06T09:33:04.480Z,76.116943
2022-09-06T09:34:14.141Z,76.721191
2022-09-06T09:35:22.902Z,76.782227
2022-09-06T09:36:30.592Z,76.245117
2022-09-06T09:37:46.790Z,75.3479
2022-09-06T09:38:48.983Z,76.409912
2022-09-06T09:39:58.757Z,74.713135
2022-09-06T09:41:07.440Z,74.810791
2022-09-06T09:42:15.096Z,75.512695
2022-09-06T09:43:24.788Z,75.213623
2022-09-06T09:44:33.472Z,74.975586
2022-09-06T09:45:43.148Z,75.238037
2022-09-06T09:46:51.986Z,74.902344
2022-09-06T09:48:00.552Z,72.875977
2022-09-06T09:49:10.264Z,72.546387
2022-09-06T09:50:17.975Z,70.654297
2022-09-06T09:51:27.921Z,70.751953
2022-09-06T09:52:37.437Z,69.525146
2022-09-06T09:53:46.112Z,67.999268
2022-09-06T09:54:54.784Z,67.333984
2022-09-06T09:56:03.450Z,68.432617
2022-09-06T09:57:13.203Z,67.86499
2022-09-06T09:58:22.897Z,67.86499
2022-09-06T09:59:30.567Z,68.695068
2022-09-06T10:00:39.321Z,69.458008
2022-09-06T10:01:48.948Z,68.994141
2022-09-06T10:02:58.669Z,69.989014
2022-09-06T10:05:19.001Z,69.494629
2022-09-06T10:07:39.321Z,69.824219
2022-09-06T10:08:48.994Z,70.19043
2022-09-06T10:09:58.710Z,69.958496
2022-09-06T10:11:08.433Z,68.963623
2022-09-06T10:12:16.093Z,70.52002
2022-09-06T10:13:25.788Z,68.731689
2022-09-06T10:14:34.464Z,68.994141
2022-09-06T10:15:42.202Z,69.195557
2022-09-06T10:16:51.843Z,68.994141
2022-09-06T10:18:01.486Z,69.75708
2022-09-06T10:19:11.190Z,70.788574
2022-09-06T10:20:19.866Z,71.148682
2022-09-06T10:21:29.582Z,71.350098
2022-09-06T10:22:39.254Z,72.143555
2022-09-06T10:24:57.625Z,71.21582
2022-09-06T10:26:06.309Z,70.684814
2022-09-06T10:27:15.025Z,70.153809
2022-09-06T10:28:24.904Z,69.659424
2022-09-06T10:29:34.445Z,70.318604
2022-09-06T10:30:42.122Z,70.184326
2022-09-06T10:31:50.778Z,68.896484
2022-09-06T10:33:00.589Z,68.103027
2022-09-06T10:34:10.322Z,67.30957
2022-09-06T10:35:18.975Z,67.474365
2022-09-06T10:36:27.691Z,67.144775
2022-09-06T10:37:37.363Z,66.912842
2022-09-06T10:38:46.071Z,65.527344
2022-09-06T10:39:53.765Z,65.991211
2022-09-06T10:41:03.417Z,64.471436
2022-09-06T10:42:12.076Z,63.085938
2022-09-06T10:43:21.755Z,62.988281
2022-09-06T10:44:30.459Z,61.59668
2022-09-06T10:45:39.123Z,61.895752
2022-09-06T10:46:48.849Z,62.817383
2022-09-06T10:47:58.486Z,64.306641
2022-09-06T10:49:08.144Z,60.736084
2022-09-06T10:50:17.887Z,63.580322
2022-09-06T10:51:27.554Z,62.463379
2022-09-06T10:52:36.279Z,61.767578
2022-09-06T10:53:44.963Z,60.186768
2022-09-06T10:54:54.644Z,61.499023
2022-09-06T10:56:04.344Z,62.420654
2022-09-06T10:58:21.759Z,63.122559
2022-09-06T11:00:40.974Z,59.106445
2022-09-06T11:01:50.735Z,58.587646
2022-09-06T11:04:12.661Z,58.361816
2022-09-06T11:06:30.342Z,58.48999
2022-09-06T11:07:39.423Z,57.769775
2022-09-06T11:08:50.394Z,57.965088
2022-09-06T11:09:59.362Z,57.965088
2022-09-06T11:11:08.031Z,58.26416
2022-09-06T11:12:16.685Z,59.375
2022-09-06T11:13:25.354Z,57.824707
2022-09-06T11:14:35.026Z,60.424805
2022-09-06T11:15:43.729Z,59.997559
2022-09-06T11:16:52.365Z,60.955811
2022-09-06T11:18:02.066Z,59.320068
2022-09-06T11:19:10.751Z,56.951904
2022-09-06T11:20:19.468Z,57.70874
2022-09-06T11:21:30.167Z,57.70874
2022-09-06T11:22:38.823Z,57.58667
2022-09-06T11:23:48.498Z,57.977295
2022-09-06T11:24:57.161Z,56.573486
2022-09-06T11:26:05.836Z,56.573486
2022-09-06T11:27:15.514Z,57.458496
2022-09-06T11:28:24.164Z,57.263184
2022-09-06T11:29:32.822Z,57.232666
2022-09-06T11:30:41.597Z,57.952881
2022-09-06T11:33:00.912Z,56.420898
2022-09-06T11:34:09.579Z,56.292725
2022-09-06T11:35:17.250Z,55.480957
2022-09-06T11:36:27.074Z,55.059814
2022-09-06T11:37:35.747Z,54.760742
2022-09-06T11:38:45.457Z,54.693604
2022-09-06T11:41:07.222Z,54.815674
2022-09-06T11:42:16.493Z,54.547119
2022-09-06T11:43:25.182Z,55.310059
2022-09-06T11:44:33.853Z,55.279541
2022-09-06T11:45:43.608Z,54.272461
2022-09-06T11:46:52.348Z,53.582764
2022-09-06T11:48:00.980Z,53.265381
2022-09-06T11:49:09.635Z,53.485107
2022-09-06T11:50:18.326Z,52.67334
2022-09-06T11:51:27.993Z,51.324463
2022-09-06T11:52:35.662Z,51.495361
2022-09-06T11:53:43.444Z,51.9104
2022-09-06T11:54:53.120Z,52.502441
2022-09-06T11:56:01.781Z,53.118896
2022-09-06T11:57:10.444Z,53.704834
2022-09-06T11:58:19.097Z,54.394531
2022-09-06T11:59:27.936Z,54.449463
2022-09-06T12:00:37.593Z,55.883789
2022-09-06T12:01:45.245Z,56.402588
2022-09-06T12:04:06.352Z,55.26123
2022-09-06T12:05:13.307Z,55.560303
2022-09-06T12:06:22.975Z,56.939697
2022-09-06T12:07:31.635Z,54.25415
2022-09-06T12:08:40.330Z,54.02832
2022-09-06T12:09:50.003Z,54.492188
2022-09-06T12:10:59.696Z,54.101562
2022-09-06T12:12:11.443Z,53.875732
2022-09-06T12:13:20.069Z,53.55835
2022-09-06T12:14:29.711Z,52.154541
2022-09-06T12:15:39.448Z,52.91748
2022-09-06T12:16:48.112Z,51.715088
2022-09-06T12:17:56.786Z,51.586914
2022-09-06T12:19:06.455Z,51.586914
2022-09-06T12:20:15.135Z,52.844238
2022-09-06T12:21:24.787Z,53.460693
2022-09-06T12:22:32.487Z,53.485107
2022-09-06T12:23:40.143Z,54.174805
2022-09-06T12:24:49.842Z,52.520752
2022-09-06T12:25:58.482Z,52.130127
2022-09-06T12:27:07.142Z,52.276611
2022-09-06T12:28:15.853Z,51.78833
2022-09-06T12:29:24.511Z,52.154541
2022-09-06T12:30:34.181Z,50.390625
2022-09-06T12:31:41.930Z,51.464844
2022-09-06T12:32:50.534Z,50.976562
2022-09-06T12:34:00.226Z,51.196289
2022-09-06T12:36:18.571Z,51.660156
2022-09-06T12:37:27.230Z,52.032471
2022-09-06T12:38:36.919Z,50.512695
2022-09-06T12:39:46.782Z,49.407959
2022-09-06T12:40:55.370Z,48.529053
2022-09-06T12:42:04.025Z,49.407959
2022-09-06T12:43:13.678Z,49.505615
2022-09-06T12:44:23.382Z,49.285889
2022-09-06T12:45:32.084Z,48.626709
2022-09-06T12:46:41.810Z,50.732422
2022-09-06T12:47:51.489Z,50.90332
2022-09-06T12:49:01.135Z,52.325439
2022-09-06T12:50:09.823Z,52.423096
2022-09-06T12:51:18.572Z,52.130127
2022-09-06T12:52:28.304Z,51.715088
2022-09-06T12:53:36.972Z,52.276611
2022-09-06T12:54:45.645Z,50.488281
2022-09-06T12:55:54.315Z,51.44043
2022-09-06T12:57:03.137Z,51.519775
2022-09-06T12:58:12.832Z,53.381348
2022-09-06T12:59:21.482Z,52.862549
2022-09-06T13:00:30.134Z,53.479004
2022-09-06T13:01:39.915Z,52.79541
2022-09-06T13:02:48.776Z,53.210449
2022-09-06T13:03:58.292Z,53.924561
2022-09-06T13:05:08.958Z,55.212402
2022-09-06T13:06:17.634Z,57.037354
2022-09-06T13:07:28.318Z,57.556152
2022-09-06T13:08:35.977Z,58.935547
2022-09-06T13:09:43.629Z,58.935547
2022-09-06T13:10:53.317Z,60.71167
2022-09-06T13:12:01.982Z,59.429932
2022-09-06T13:13:11.677Z,59.301758
2022-09-06T13:14:21.386Z,58.612061
2022-09-06T13:15:31.095Z,57.696533
2022-09-06T13:16:40.712Z,56.951904
2022-09-06T13:17:48.351Z,55.969238
2022-09-06T13:18:57.012Z,56.433105
2022-09-06T13:20:06.711Z,55.871582
2022-09-06T13:21:15.360Z,55.749512
2022-09-06T13:22:25.054Z,54.046631
2022-09-06T13:23:33.720Z,53.533936
2022-09-06T13:24:46.490Z,53.405762
2022-09-06T13:25:53.084Z,53.771973
2022-09-06T13:27:01.735Z,52.374268
2022-09-06T13:28:09.386Z,52.545166
2022-09-06T13:29:19.094Z,50.537109
2022-09-06T13:30:28.744Z,49.407959
2022-09-06T13:31:38.553Z,49.725342
2022-09-06T13:32:48.098Z,50.610352
2022-09-06T13:33:56.751Z,50.683594
2022-09-06T13:35:06.400Z,50.390625
2022-09-06T13:36:14.059Z,50.268555